Date,TemperatureHighF,TemperatureAvgF,TemperatureLowF,DewpointHighF,DewpointAvgF,DewpointLowF,HumidityHigh,HumidityAvg,HumidityLow,PressureMaxIn,PressureMinIn,WindSpeedMaxMPH,WindSpeedAvgMPH,GustSpeedMaxMPH,PrecipitationSumIn
2014-2-1,58.5,38.1,22.1,27.6,22.5,19.5,96,59,25,30.09,29.84,11,3,0,0.00
2014-2-2,66.7,46.3,27.7,47.4,35.8,22.7,95,68,43,29.87,29.75,9,3,0,0.00
2014-2-3,44.8,36.9,33.6,44.0,35.7,33.3,99,95,83,30.13,29.81,13,7,0,0.00
2014-2-4,34.7,31.9,30.0,34.0,31.0,29.1,99,96,92,30.25,29.94,5,3,0,0.00
2014-2-5,55.0,37.6,30.9,45.8,31.4,20.4,99,80,54,29.95,29.48,29,8,0,0.00
2014-2-6,41.0,30.9,25.3,25.2,20.5,16.6,92,66,45,30.15,29.97,14,4,0,0.00
2014-2-7,48.2,31.6,18.9,25.3,21.6,18.3,99,70,37,30.15,30.03,9,3,0,0.00
2014-2-8,41.2,31.2,25.0,29.2,24.5,20.1,88,76,62,30.14,29.95,8,3,0,0.00
2014-2-9,43.9,33.9,27.5,34.2,26.8,22.4,85,75,60,29.98,29.74,18,4,0,0.00
2014-2-10,40.5,30.5,19.2,22.1,15.2,9.5,71,54,35,30.12,29.86,10,5,0,0.00
2014-2-11,37.8,23.1,12.2,14.9,11.9,9.6,89,64,37,30.26,30.10,7,3,0,0.00
2014-2-12,28.8,19.5,10.9,18.8,12.1,6.8,96,74,49,30.29,29.92,13,4,0,0.00
2014-2-13,36.9,27.0,18.7,32.3,24.9,17.3,99,92,60,29.91,29.24,20,5,0,0.00
2014-2-14,60.4,41.7,27.7,27.2,21.6,15.6,71,48,20,29.52,29.33,17,5,0,0.00
2014-2-15,39.7,32.4,21.9,34.6,24.1,12.1,99,73,49,29.82,29.41,20,7,0,0.00
2014-2-16,47.7,30.8,21.0,26.3,18.2,12.6,76,60,38,30.03,29.75,21,5,0,0.00
2014-2-17,46.2,29.8,15.6,25.4,16.9,12.4,96,61,32,30.24,29.97,12,4,0,0.00
2014-2-18,61.2,40.7,22.6,28.5,23.6,18.3,98,58,21,29.97,29.84,18,6,0,0.00
2014-2-19,65.7,45.9,28.8,47.6,32.0,21.7,92,62,34,29.96,29.56,24,6,0,0.00
2014-2-20,55.6,41.7,28.0,34.8,29.8,24.1,93,65,36,30.06,29.73,10,3,0,0.00
2014-2-21,62.4,50.0,38.8,56.5,36.0,20.4,96,64,26,29.83,29.49,20,6,0,0.00
2014-2-22,63.9,47.0,34.5,26.9,22.7,19.1,71,41,19,29.96,29.83,18,5,0,0.00
2014-2-23,70.5,49.2,32.0,35.5,29.1,24.7,80,51,21,29.87,29.66,14,5,0,0.00
2014-2-24,46.0,38.1,24.3,34.9,14.5,4.2,71,41,19,29.96,29.76,25,10,0,0.00
2014-2-25,43.9,30.2,19.9,22.5,18.4,14.0,90,64,37,29.94,29.76,13,4,0,0.00
2014-2-26,38.7,29.7,17.8,22.1,13.3,4.2,79,53,25,29.81,29.62,17,5,0,0.00
2014-2-27,41.4,27.9,15.6,10.8,5.8,-0.7,75,42,20,29.90,29.46,21,8,0,0.00
2014-2-28,37.6,22.2,9.5,13.5,7.4,0.9,75,54,34,30.17,29.91,14,5,0,0.00